createdAt,value
2023-03-26T00:01:13.900Z,99896.91
2023-03-26T00:03:41.062Z,99893.41
2023-03-26T00:06:16.518Z,99897.75
2023-03-26T00:08:45.111Z,99893.41
2023-03-26T00:11:13.889Z,99900.44
2023-03-26T00:13:42.235Z,99906.66
2023-03-26T00:16:09.330Z,99905.81
2023-03-26T00:18:35.741Z,99902.47
2023-03-26T00:21:05.244Z,99906.81
2023-03-26T00:23:33.914Z,99908.81
2023-03-26T00:26:01.490Z,99908.00
2023-03-26T00:28:29.589Z,99913.38
2023-03-26T00:31:01.777Z,99923.25
2023-03-26T00:33:28.661Z,99927.81
2023-03-26T00:35:58.699Z,99917.25
2023-03-26T00:38:26.574Z,99930.66
2023-03-26T00:40:54.338Z,99929.00
2023-03-26T00:43:22.555Z,99930.66
2023-03-26T00:45:51.865Z,99923.44
2023-03-26T00:48:18.841Z,99920.75
2023-03-26T00:50:46.878Z,99928.78
2023-03-26T00:53:14.845Z,99921.59
2023-03-26T00:55:43.372Z,99926.97
2023-03-26T00:58:12.701Z,99920.75
2023-03-26T01:00:58.651Z,99931.31
2023-03-26T01:03:29.302Z,99918.94
2023-03-26T01:06:04.856Z,99927.97
2023-03-26T01:08:38.304Z,99923.63
2023-03-26T01:11:15.860Z,99921.31
2023-03-26T01:13:56.005Z,99915.28
2023-03-26T01:16:38.195Z,99918.31
2023-03-26T01:19:33.756Z,99911.47
2023-03-26T01:22:00.786Z,99912.66
2023-03-26T01:24:27.302Z,99905.78
2023-03-26T01:27:09.698Z,99900.59
2023-03-26T01:30:06.889Z,99907.16
2023-03-26T01:33:21.486Z,99906.47
2023-03-26T01:36:19.643Z,99904.97
2023-03-26T01:39:00.655Z,99897.97
2023-03-26T01:41:33.780Z,99890.94
2023-03-26T01:44:20.705Z,99893.78
2023-03-26T01:46:48.419Z,99886.75
2023-03-26T01:49:14.771Z,99886.94
2023-03-26T01:51:42.510Z,99885.28
2023-03-26T01:54:12.877Z,99877.22
2023-03-26T01:57:04.283Z,99875.53
2023-03-26T01:59:53.080Z,99882.75
2023-03-26T02:02:42.812Z,99891.97
2023-03-26T02:05:18.537Z,99879.59
2023-03-26T02:07:52.029Z,99872.56
2023-03-26T02:10:29.463Z,99873.41
2023-03-26T02:12:57.619Z,99873.41
2023-03-26T02:15:24.258Z,99874.25
2023-03-26T02:17:52.232Z,99867.84
2023-03-26T02:20:20.226Z,99870.38
2023-03-26T02:22:47.303Z,99863.81
2023-03-26T02:25:20.501Z,99852.72
2023-03-26T02:27:47.575Z,99858.94
2023-03-26T02:30:17.199Z,99857.94
2023-03-26T02:32:46.493Z,99840.00
2023-03-26T02:35:13.612Z,99838.97
2023-03-26T02:37:42.130Z,99848.50
2023-03-26T02:40:11.792Z,99844.78
2023-03-26T02:42:39.146Z,99840.09
2023-03-26T02:45:07.849Z,99835.56
2023-03-26T02:47:34.746Z,99834.56
2023-03-26T02:50:01.534Z,99829.88
2023-03-26T02:52:27.944Z,99827.00
2023-03-26T02:54:54.378Z,99826.81
2023-03-26T02:57:21.216Z,99831.16
2023-03-26T02:59:50.259Z,99833.47
2023-03-26T03:02:18.274Z,99828.78
2023-03-26T03:04:44.908Z,99830.44
2023-03-26T03:07:14.350Z,99827.41
2023-03-26T03:09:41.131Z,99813.81
2023-03-26T03:12:07.535Z,99815.28
2023-03-26T03:14:34.018Z,99811.41
2023-03-26T03:17:00.530Z,99810.22
2023-03-26T03:19:27.070Z,99809.84
2023-03-26T03:21:53.454Z,99802.47
2023-03-26T03:24:19.825Z,99803.94
2023-03-26T03:26:48.019Z,99796.56
2023-03-26T03:29:14.338Z,99799.03
2023-03-26T03:31:41.311Z,99796.19
2023-03-26T03:34:07.665Z,99792.69
2023-03-26T03:36:38.203Z,99794.34
2023-03-26T03:39:05.116Z,99795.16
2023-03-26T03:41:31.482Z,99797.84
2023-03-26T03:43:59.775Z,99799.69
2023-03-26T03:46:26.217Z,99803.03
2023-03-26T03:48:52.617Z,99801.19
2023-03-26T03:51:21.604Z,99800.19
2023-03-26T03:53:47.968Z,99797.50
2023-03-26T03:56:14.749Z,99799.00
2023-03-26T03:58:41.672Z,99797.13
2023-03-26T04:01:08.041Z,99789.91
2023-03-26T04:03:38.743Z,99794.91
2023-03-26T04:06:11.011Z,99788.50
2023-03-26T04:08:37.431Z,99782.97
2023-03-26T04:11:04.575Z,99776.59
2023-03-26T04:13:31.159Z,99774.75
2023-03-26T04:15:57.888Z,99771.03
2023-03-26T04:18:26.280Z,99770.88
2023-03-26T04:20:54.517Z,99763.66
2023-03-26T04:23:22.410Z,99770.66
2023-03-26T04:25:53.755Z,99768.66
2023-03-26T04:29:00.003Z,99771.97
2023-03-26T04:31:31.158Z,99770.94
2023-03-26T04:34:06.908Z,99767.28
2023-03-26T04:36:34.278Z,99764.59
2023-03-26T04:39:04.859Z,99762.72
2023-03-26T04:41:32.330Z,99755.50
2023-03-26T04:44:01.735Z,99763.56
2023-03-26T04:46:28.127Z,99755.50
2023-03-26T04:48:54.985Z,99753.66
2023-03-26T04:51:27.350Z,99760.66
2023-03-26T04:54:00.337Z,99758.84
2023-03-26T04:56:43.126Z,99756.16
2023-03-26T04:59:14.744Z,99749.09
2023-03-26T05:01:41.637Z,99742.25
2023-03-26T05:04:08.248Z,99747.81
2023-03-26T05:06:34.791Z,99741.81
2023-03-26T05:09:02.127Z,99738.09
2023-03-26T05:11:28.624Z,99735.59
2023-03-26T05:13:54.974Z,99734.78
2023-03-26T05:16:22.464Z,99736.59
2023-03-26T05:18:48.831Z,99728.75
2023-03-26T05:21:15.364Z,99732.25
2023-03-26T05:23:41.770Z,99721.53
2023-03-26T05:26:09.898Z,99727.72
2023-03-26T05:28:36.807Z,99726.06
2023-03-26T05:31:03.484Z,99719.66
2023-03-26T05:33:30.407Z,99717.81
2023-03-26T05:36:02.339Z,99711.25
2023-03-26T05:38:29.982Z,99707.56
2023-03-26T05:41:01.228Z,99710.91
2023-03-26T05:43:28.541Z,99708.00
2023-03-26T05:45:54.943Z,99704.13
2023-03-26T05:48:22.291Z,99703.75
2023-03-26T05:50:50.671Z,99704.41
2023-03-26T05:53:18.220Z,99690.78
2023-03-26T05:55:45.935Z,99709.38
2023-03-26T05:58:13.006Z,99697.44
2023-03-26T06:00:39.472Z,99693.75
2023-03-26T06:03:06.141Z,99697.25
2023-03-26T06:05:37.301Z,99694.38
2023-03-26T06:08:04.429Z,99686.16
2023-03-26T06:10:31.404Z,99675.19
2023-03-26T06:12:58.045Z,99679.56
2023-03-26T06:15:24.456Z,99676.50
2023-03-26T06:17:50.893Z,99675.47
2023-03-26T06:20:17.293Z,99675.94
2023-03-26T06:22:43.762Z,99673.06
2023-03-26T06:25:10.111Z,99674.53
2023-03-26T06:27:36.456Z,99669.63
2023-03-26T06:30:03.008Z,99663.06
2023-03-26T06:32:29.409Z,99666.00
2023-03-26T06:34:55.975Z,99664.59
2023-03-26T06:37:22.310Z,99667.75
2023-03-26T06:39:48.671Z,99661.78
2023-03-26T06:42:15.028Z,99675.69
2023-03-26T06:44:41.436Z,99663.72
2023-03-26T06:47:07.862Z,99661.66
2023-03-26T06:49:34.515Z,99664.84
2023-03-26T06:52:02.849Z,99656.56
2023-03-26T06:54:29.399Z,99659.91
2023-03-26T06:56:56.452Z,99664.44
2023-03-26T06:59:22.924Z,99662.59
2023-03-26T07:01:49.284Z,99658.84
2023-03-26T07:04:15.843Z,99660.72
2023-03-26T07:06:42.297Z,99648.75
2023-03-26T07:09:08.644Z,99644.84
2023-03-26T07:11:35.190Z,99650.69
2023-03-26T07:14:01.529Z,99639.34
2023-03-26T07:16:28.120Z,99637.94
2023-03-26T07:18:55.290Z,99637.16
2023-03-26T07:21:22.604Z,99633.91
2023-03-26T07:23:49.344Z,99624.22
2023-03-26T07:26:26.459Z,99630.28
2023-03-26T07:29:04.812Z,99626.81
2023-03-26T07:31:45.649Z,99624.38
2023-03-26T07:34:42.822Z,99614.69
2023-03-26T07:37:31.624Z,99618.63
2023-03-26T07:40:10.607Z,99614.72
2023-03-26T07:42:36.945Z,99612.03
2023-03-26T07:45:30.312Z,99610.78
2023-03-26T07:47:57.143Z,99615.34
2023-03-26T07:50:24.813Z,99618.88
2023-03-26T07:52:51.849Z,99611.84
2023-03-26T07:55:19.509Z,99615.34
2023-03-26T07:58:00.957Z,99614.34
2023-03-26T08:00:35.043Z,99617.03
2023-03-26T08:03:23.118Z,99611.66
2023-03-26T08:06:07.708Z,99611.00
2023-03-26T08:09:11.375Z,99614.72
2023-03-26T08:11:53.510Z,99613.88
2023-03-26T08:14:44.293Z,99609.34
2023-03-26T08:17:53.269Z,99599.22
2023-03-26T08:20:31.088Z,99602.72
2023-03-26T08:23:09.433Z,99603.59
2023-03-26T08:25:53.389Z,99601.50
2023-03-26T08:28:30.466Z,99600.28
2023-03-26T08:30:57.752Z,99596.34
2023-03-26T08:33:27.729Z,99594.94
2023-03-26T08:35:54.200Z,99590.19
2023-03-26T08:38:32.895Z,99592.50
2023-03-26T08:41:11.679Z,99588.34
2023-03-26T08:43:50.185Z,99592.72
2023-03-26T08:46:37.987Z,99592.31
2023-03-26T08:49:39.876Z,99593.34
2023-03-26T08:52:40.332Z,99588.56
2023-03-26T08:55:36.419Z,99594.53
2023-03-26T08:58:21.494Z,99582.91
2023-03-26T09:01:06.746Z,99588.25
2023-03-26T09:03:57.585Z,99581.81
2023-03-26T09:07:01.881Z,99584.44
2023-03-26T09:09:49.535Z,99579.66
2023-03-26T09:12:48.018Z,99574.03
2023-03-26T09:15:42.274Z,99579.00
2023-03-26T09:18:29.306Z,99567.81
2023-03-26T09:21:28.914Z,99575.41
2023-03-26T09:24:27.667Z,99570.66
2023-03-26T09:27:07.711Z,99572.88
2023-03-26T09:30:01.149Z,99575.78
2023-03-26T09:32:51.575Z,99573.28
2023-03-26T09:35:50.560Z,99568.72
2023-03-26T09:38:32.328Z,99572.22
2023-03-26T09:41:07.876Z,99572.22
2023-03-26T09:43:43.667Z,99570.19
2023-03-26T09:46:34.334Z,99568.97
2023-03-26T09:49:45.500Z,99557.00
2023-03-26T09:52:40.829Z,99558.06
2023-03-26T09:55:20.375Z,99564.72
2023-03-26T09:58:04.694Z,99568.28
2023-03-26T10:00:47.918Z,99565.22
2023-03-26T10:03:14.341Z,99565.28
2023-03-26T10:05:58.622Z,99562.00
2023-03-26T10:08:41.832Z,99562.88
2023-03-26T10:11:11.128Z,99566.63
2023-03-26T10:13:56.197Z,99565.81
2023-03-26T10:16:47.992Z,99562.34
2023-03-26T10:19:20.561Z,99561.13
2023-03-26T10:22:03.790Z,99559.03
2023-03-26T10:24:48.419Z,99553.66
2023-03-26T10:27:52.427Z,99559.66
2023-03-26T10:30:47.139Z,99562.16
2023-03-26T10:33:33.657Z,99552.88
2023-03-26T10:36:01.030Z,99559.50
2023-03-26T10:38:27.433Z,99554.13
2023-03-26T10:41:16.807Z,99554.97
2023-03-26T10:44:07.507Z,99546.13
2023-03-26T10:46:50.228Z,99548.81
2023-03-26T10:49:35.609Z,99555.06
2023-03-26T10:52:08.060Z,99555.28
2023-03-26T10:54:53.341Z,99547.41
2023-03-26T10:57:41.191Z,99550.94
2023-03-26T11:00:17.337Z,99550.94
2023-03-26T11:02:54.257Z,99539.56
2023-03-26T11:05:58.099Z,99545.16
2023-03-26T11:08:51.450Z,99550.13
2023-03-26T11:11:23.985Z,99554.47
2023-03-26T11:14:27.963Z,99548.06
2023-03-26T11:17:39.452Z,99543.91
2023-03-26T11:20:30.288Z,99547.84
2023-03-26T11:23:30.850Z,99543.50
2023-03-26T11:26:55.884Z,99541.81
2023-03-26T11:29:43.079Z,99538.69
2023-03-26T11:32:15.543Z,99552.00
2023-03-26T11:34:52.839Z,99545.97
2023-03-26T11:37:46.308Z,99563.41
2023-03-26T11:40:37.263Z,99546.38
2023-03-26T11:43:07.725Z,99540.59
2023-03-26T11:45:42.279Z,99543.50
2023-03-26T11:48:17.182Z,99542.66
2023-03-26T11:50:55.674Z,99536.00
2023-03-26T11:53:27.559Z,99551.56
2023-03-26T11:56:09.277Z,99545.56
2023-03-26T11:58:45.628Z,99542.44
2023-03-26T12:01:17.281Z,99546.59
2023-03-26T12:03:55.688Z,99536.88
2023-03-26T12:06:25.720Z,99540.16
2023-03-26T12:08:53.653Z,99539.34
2023-03-26T12:11:27.217Z,99541.00
2023-03-26T12:14:00.798Z,99541.84
2023-03-26T12:16:27.909Z,99545.78
2023-03-26T12:19:19.390Z,99535.19
2023-03-26T12:21:48.380Z,99537.25
2023-03-26T12:24:29.567Z,99533.72
2023-03-26T12:27:25.257Z,99537.25
2023-03-26T12:29:52.719Z,99538.09
2023-03-26T12:32:19.131Z,99533.97
2023-03-26T12:34:45.631Z,99532.28
2023-03-26T12:37:36.960Z,99540.16
2023-03-26T12:40:26.380Z,99542.47
2023-03-26T12:44:54.889Z,99530.41
2023-03-26T12:45:44.626Z,99532.31
2023-03-26T12:48:15.443Z,99534.16
2023-03-26T12:50:51.016Z,99537.06
2023-03-26T12:53:31.117Z,99536.63
2023-03-26T12:56:01.919Z,99543.88
2023-03-26T12:58:51.114Z,99536.41
2023-03-26T13:01:42.073Z,99540.94
2023-03-26T13:04:27.498Z,99542.72
2023-03-26T13:07:23.514Z,99545.44
2023-03-26T13:10:22.709Z,99550.41
2023-03-26T13:13:27.832Z,99546.44
2023-03-26T13:16:19.466Z,99539.19
2023-03-26T13:19:15.711Z,99551.13
2023-03-26T13:21:45.962Z,99543.88
2023-03-26T13:24:26.515Z,99544.69
2023-03-26T13:27:18.316Z,99545.06
2023-03-26T13:29:56.251Z,99544.44
2023-03-26T13:32:50.504Z,99554.38
2023-03-26T13:35:46.825Z,99553.75
2023-03-26T13:38:21.902Z,99547.50
2023-03-26T13:41:30.198Z,99547.72
2023-03-26T13:44:05.355Z,99541.53
2023-03-26T13:46:51.868Z,99556.63
2023-03-26T13:49:40.593Z,99561.38
2023-03-26T13:52:22.310Z,99567.38
2023-03-26T13:55:12.785Z,99559.66
2023-03-26T13:57:43.490Z,99556.50
2023-03-26T14:00:16.323Z,99562.03
2023-03-26T14:02:47.728Z,99562.78
2023-03-26T14:05:21.159Z,99557.00
2023-03-26T14:07:57.230Z,99563.59
2023-03-26T14:10:23.759Z,99561.53
2023-03-26T14:13:16.208Z,99572.31
2023-03-26T14:15:55.791Z,99569.78
2023-03-26T14:18:43.268Z,99555.53
2023-03-26T14:21:40.739Z,99573.69
2023-03-26T14:24:22.470Z,99575.78
2023-03-26T14:26:56.026Z,99571.81
2023-03-26T14:29:57.505Z,99566.44
2023-03-26T14:32:51.276Z,99580.69
2023-03-26T14:35:28.199Z,99573.47
2023-03-26T14:38:00.795Z,99574.09
2023-03-26T14:40:33.295Z,99585.06
2023-03-26T14:43:18.187Z,99579.03
2023-03-26T14:45:44.504Z,99577.16
2023-03-26T14:48:16.990Z,99582.06
2023-03-26T14:50:58.157Z,99587.66
2023-03-26T14:53:34.522Z,99589.69
2023-03-26T14:56:15.809Z,99587.66
2023-03-26T14:59:01.108Z,99585.78
2023-03-26T15:01:45.916Z,99584.75
2023-03-26T15:04:27.297Z,99603.97
2023-03-26T15:07:41.416Z,99604.75
2023-03-26T15:10:35.646Z,99600.13
2023-03-26T15:13:26.625Z,99603.75
2023-03-26T15:16:08.310Z,99609.25
2023-03-26T15:19:03.932Z,99599.28
2023-03-26T15:22:07.898Z,99633.13
2023-03-26T15:24:52.753Z,99621.06
2023-03-26T15:27:47.356Z,99611.53
2023-03-26T15:30:13.688Z,99629.91
2023-03-26T15:33:22.640Z,99622.22
2023-03-26T15:36:01.000Z,99635.66
2023-03-26T15:38:38.454Z,99636.47
2023-03-26T15:41:30.540Z,99649.09
2023-03-26T15:46:38.499Z,99638.25
2023-03-26T15:49:23.001Z,99655.97
2023-03-26T15:52:06.286Z,99652.00
2023-03-26T15:54:45.289Z,99662.47
2023-03-26T15:57:47.060Z,99666.34
2023-03-26T16:00:22.583Z,99674.59
2023-03-26T16:03:10.666Z,99671.25
2023-03-26T16:06:02.232Z,99662.19
2023-03-26T16:08:40.986Z,99671.91
2023-03-26T16:11:12.463Z,99669.66
2023-03-26T16:13:48.872Z,99670.31
2023-03-26T16:16:15.369Z,99662.09
2023-03-26T16:18:48.279Z,99676.34
2023-03-26T16:21:31.346Z,99679.19
2023-03-26T16:24:08.406Z,99677.94
2023-03-26T16:26:54.550Z,99690.03
2023-03-26T16:29:27.962Z,99691.81
2023-03-26T16:32:09.775Z,99702.28
2023-03-26T16:34:57.283Z,99701.16
2023-03-26T16:37:36.234Z,99706.91
2023-03-26T16:40:22.186Z,99711.81
2023-03-26T16:43:24.173Z,99710.50
2023-03-26T16:45:59.721Z,99714.59
2023-03-26T16:48:35.770Z,99724.00
2023-03-26T16:51:05.139Z,99729.94
2023-03-26T16:53:41.656Z,99731.31
2023-03-26T16:56:14.100Z,99734.53
2023-03-26T16:58:40.753Z,99749.69
2023-03-26T17:01:17.550Z,99753.91
2023-03-26T17:03:56.122Z,99762.69
2023-03-26T17:06:45.652Z,99762.22
2023-03-26T17:09:27.901Z,99763.59
2023-03-26T17:12:14.825Z,99776.16
2023-03-26T17:14:49.998Z,99788.09
2023-03-26T17:17:28.566Z,99778.72
2023-03-26T17:20:33.530Z,99789.13
2023-03-26T17:23:11.542Z,99797.19
2023-03-26T17:25:57.433Z,99801.78
2023-03-26T17:28:50.600Z,99803.69
2023-03-26T17:31:39.865Z,99807.41
2023-03-26T17:34:33.096Z,99820.84
2023-03-26T17:37:01.174Z,99824.41
2023-03-26T17:39:39.861Z,99826.28
2023-03-26T17:42:26.783Z,99830.66
2023-03-26T17:45:17.583Z,99835.69
2023-03-26T17:47:51.619Z,99842.41
2023-03-26T17:50:25.321Z,99857.13
2023-03-26T17:53:02.538Z,99853.16
2023-03-26T17:55:39.652Z,99884.75
2023-03-26T17:58:19.170Z,99864.03
2023-03-26T18:00:52.172Z,99872.75
2023-03-26T18:03:23.549Z,99883.28
2023-03-26T18:05:58.238Z,99898.00
2023-03-26T18:08:27.560Z,99899.03
2023-03-26T18:11:09.326Z,99910.56
2023-03-26T18:13:55.538Z,99912.22
2023-03-26T18:16:28.471Z,99921.06
2023-03-26T18:19:00.620Z,99928.78
2023-03-26T18:21:32.769Z,99926.06
2023-03-26T18:24:01.021Z,99926.06
2023-03-26T18:26:38.490Z,99940.09
2023-03-26T18:29:37.828Z,99944.41
2023-03-26T18:32:10.068Z,99941.56
2023-03-26T18:34:49.759Z,99945.06
2023-03-26T18:37:23.251Z,99955.38
2023-03-26T18:39:57.165Z,99963.34
2023-03-26T18:42:25.554Z,99961.28
2023-03-26T18:44:53.494Z,99967.44
2023-03-26T18:47:28.048Z,99981.28
2023-03-26T18:49:57.321Z,99982.78
2023-03-26T18:52:23.820Z,99994.91
2023-03-26T18:54:54.008Z,100006.09
2023-03-26T18:57:23.975Z,100009.34
2023-03-26T18:59:52.610Z,100014.19
2023-03-26T19:02:20.430Z,100020.16
2023-03-26T19:04:49.477Z,100017.13
2023-03-26T19:07:24.000Z,100019.41
2023-03-26T19:09:56.177Z,100016.38
2023-03-26T19:12:32.822Z,100024.00
2023-03-26T19:15:14.618Z,100033.31
2023-03-26T19:18:14.342Z,100042.63
2023-03-26T19:20:44.246Z,100043.06
2023-03-26T19:23:25.661Z,100047.06
2023-03-26T19:25:58.000Z,100058.19
2023-03-26T19:28:31.702Z,100064.81
2023-03-26T19:31:08.146Z,100061.59
2023-03-26T19:33:40.436Z,100067.38
2023-03-26T19:36:13.007Z,100072.19
2023-03-26T19:38:48.895Z,100074.31
2023-03-26T19:41:30.394Z,100081.94
2023-03-26T19:44:00.726Z,100080.56
2023-03-26T19:46:29.139Z,100082.84
2023-03-26T19:48:57.686Z,100079.78
2023-03-26T19:51:32.292Z,100094.38
2023-03-26T19:54:03.001Z,100090.34
2023-03-26T19:56:30.080Z,100092.50
2023-03-26T19:58:57.401Z,100101.75
2023-03-26T20:01:28.440Z,100102.06
2023-03-26T20:03:58.826Z,100116.53
2023-03-26T20:06:41.691Z,100118.50
2023-03-26T20:09:10.912Z,100124.13
2023-03-26T20:11:39.242Z,100141.25
2023-03-26T20:14:18.239Z,100130.56
2023-03-26T20:16:45.797Z,100136.22
2023-03-26T20:19:14.073Z,100142.50
2023-03-26T20:21:41.534Z,100143.63
2023-03-26T20:24:14.676Z,100156.00
2023-03-26T20:26:41.549Z,100154.47
2023-03-26T20:29:07.926Z,100150.38
2023-03-26T20:31:34.473Z,100158.53
2023-03-26T20:34:00.889Z,100156.00
2023-03-26T20:36:33.916Z,100162.34
2023-03-26T20:39:06.058Z,100160.81
2023-03-26T20:41:34.215Z,100168.94
2023-03-26T20:44:00.972Z,100170.75
2023-03-26T20:46:30.537Z,100175.38
2023-03-26T20:48:58.731Z,100183.53
2023-03-26T20:51:25.240Z,100187.31
2023-03-26T20:53:51.888Z,100185.91
2023-03-26T20:56:20.258Z,100188.03
2023-03-26T20:58:54.791Z,100187.47
2023-03-26T21:01:27.783Z,100194.78
2023-03-26T21:03:54.455Z,100200.53
2023-03-26T21:06:20.779Z,100196.44
2023-03-26T21:08:47.378Z,100202.91
2023-03-26T21:11:26.673Z,100211.19
2023-03-26T21:14:09.254Z,100209.78
2023-03-26T21:16:36.467Z,100220.03
2023-03-26T21:19:03.321Z,100220.44
2023-03-26T21:21:59.965Z,100217.22
2023-03-26T21:24:41.784Z,100234.28
2023-03-26T21:27:22.234Z,100231.19
2023-03-26T21:29:48.888Z,100238.75
2023-03-26T21:32:15.533Z,100246.44
2023-03-26T21:34:55.719Z,100255.69
2023-03-26T21:37:24.825Z,100255.25
2023-03-26T21:39:51.606Z,100252.00
2023-03-26T21:42:18.512Z,100255.94
2023-03-26T21:44:45.191Z,100257.31
2023-03-26T21:47:12.060Z,100265.53
2023-03-26T21:49:38.791Z,100274.63
2023-03-26T21:52:05.736Z,100274.06
2023-03-26T21:54:33.077Z,100275.34
2023-03-26T21:57:39.162Z,100281.78
2023-03-26T22:00:18.072Z,100293.53
2023-03-26T22:03:00.137Z,100295.47
2023-03-26T22:05:32.756Z,100301.88
2023-03-26T22:08:04.427Z,100306.63
2023-03-26T22:10:32.016Z,100306.88
2023-03-26T22:12:58.834Z,100308.00
2023-03-26T22:15:31.121Z,100312.75
2023-03-26T22:18:02.526Z,100326.16
2023-03-26T22:20:29.297Z,100322.94
2023-03-26T22:22:55.839Z,100324.03
2023-03-26T22:25:24.078Z,100325.13
2023-03-26T22:27:51.476Z,100330.59
2023-03-26T22:30:18.769Z,100330.72
2023-03-26T22:32:45.492Z,100334.47
2023-03-26T22:35:12.888Z,100334.75
2023-03-26T22:37:39.869Z,100344.53
2023-03-26T22:40:13.139Z,100346.47
2023-03-26T22:42:40.103Z,100347.59
2023-03-26T22:45:07.282Z,100359.31
2023-03-26T22:47:35.455Z,100363.06
2023-03-26T22:50:03.125Z,100364.19
2023-03-26T22:52:30.470Z,100364.28
2023-03-26T22:54:57.378Z,100368.78
2023-03-26T22:57:24.415Z,100376.75
2023-03-26T22:59:51.964Z,100385.69
2023-03-26T23:02:18.645Z,100383.03
2023-03-26T23:04:46.155Z,100389.31
2023-03-26T23:07:12.514Z,100389.44
2023-03-26T23:09:38.956Z,100389.56
2023-03-26T23:12:05.743Z,100390.56
2023-03-26T23:14:36.156Z,100403.94
2023-03-26T23:17:02.575Z,100409.41
2023-03-26T23:19:30.125Z,100411.34
2023-03-26T23:21:57.582Z,100426.56
2023-03-26T23:24:26.378Z,100432.03
2023-03-26T23:26:53.140Z,100436.47
2023-03-26T23:29:19.697Z,100443.84
2023-03-26T23:31:46.230Z,100443.97
2023-03-26T23:34:13.471Z,100445.78
2023-03-26T23:36:40.811Z,100447.59
2023-03-26T23:39:07.285Z,100456.56
2023-03-26T23:41:34.480Z,100456.66
2023-03-26T23:44:01.476Z,100467.41
2023-03-26T23:46:34.809Z,100473.69
2023-03-26T23:49:04.342Z,100468.66
2023-03-26T23:51:31.759Z,100477.56
2023-03-26T23:53:59.687Z,100482.19
2023-03-26T23:56:27.568Z,100486.75
2023-03-26T23:58:55.138Z,100489.66
